Time;durP1;ratioP1;P1;durP2;ratioP2;P2;SDS_P1;SDS_P2;PMS_P1;PMS_P2;Temp;Humidity;BMP_temperature;BMP_pressure;BME280_temperature;BME280_humidity;BME280_pressure;Samples;Min_cycle;Max_cycle;Signal;HPM_P1;HPM_P2
2022/11/06 00:00:58;;;;;;;18.03;4.60;;;10.20;78.40;10.30;96832.00;;;;5056763;28;20243;-83
2022/11/06 00:03:26;;;;;;;9.43;3.87;;;10.20;78.50;10.30;96837.00;;;;5061317;28;20262;-84
2022/11/06 00:08:40;;;;;;;36.37;5.20;;;10.20;78.80;10.30;96838.00;;;;5052212;28;20208;-83
2022/11/06 00:11:13;;;;;;;21.07;4.67;;;10.20;78.70;10.30;96843.00;;;;5060820;28;20216;-84
2022/11/06 00:13:41;;;;;;;12.97;4.60;;;10.20;78.60;10.30;96844.00;;;;5063384;28;20361;-83
2022/11/06 00:16:12;;;;;;;18.93;4.30;;;10.20;78.90;10.30;96830.00;;;;5059197;28;20270;-83
2022/11/06 00:18:41;;;;;;;14.20;4.30;;;10.20;78.60;10.30;96832.00;;;;5056994;28;20193;-83
2022/11/06 00:21:10;;;;;;;12.70;4.13;;;10.20;78.60;10.30;96837.00;;;;5060270;28;20291;-81
2022/11/06 00:23:38;;;;;;;3.80;3.13;;;10.20;78.70;10.30;96837.00;;;;5062038;28;20259;-83
2022/11/06 00:26:07;;;;;;;9.97;3.13;;;10.20;78.70;10.30;96830.00;;;;5068130;28;20290;-84
2022/11/06 00:28:35;;;;;;;9.60;3.07;;;10.20;78.80;10.30;96832.00;;;;5066653;28;20228;-84
2022/11/06 00:31:04;;;;;;;3.27;3.00;;;10.20;78.70;10.30;96830.00;;;;5066884;28;20227;-83
2022/11/06 00:33:33;;;;;;;4.30;2.87;;;10.20;78.70;10.30;96826.00;;;;5058791;28;20232;-84
2022/11/06 00:36:03;;;;;;;5.20;2.73;;;10.20;78.80;10.30;96833.00;;;;5066535;28;20285;-84
2022/11/06 00:38:30;;;;;;;15.23;3.20;;;10.20;78.70;10.30;96819.00;;;;5066590;28;20258;-83
2022/11/06 00:41:02;;;;;;;7.40;3.20;;;10.20;78.50;10.30;96821.00;;;;5073877;28;20713;-84
2022/11/06 00:43:29;;;;;;;3.33;3.03;;;10.20;78.30;10.20;96819.00;;;;5062420;28;20219;-83
2022/11/06 00:46:02;;;;;;;9.57;3.87;;;10.20;78.20;10.20;96811.00;;;;5062296;28;20207;-84
2022/11/06 00:48:29;;;;;;;6.53;3.30;;;10.20;78.20;10.20;96808.00;;;;5069091;28;20291;-83
2022/11/06 00:51:02;;;;;;;4.50;3.23;;;10.10;78.10;10.20;96818.00;;;;5058275;28;20744;-84
2022/11/06 00:53:30;;;;;;;6.70;3.00;;;10.10;78.10;10.20;96815.00;;;;5061534;28;20220;-83
2022/11/06 00:56:05;;;;;;;9.10;3.13;;;10.10;77.90;10.10;96813.00;;;;5060297;28;20294;-83
2022/11/06 00:58:32;;;;;;;3.93;2.97;;;10.10;77.60;10.10;96813.00;;;;5034219;28;20701;-83
2022/11/06 01:01:07;;;;;;;2.80;2.60;;;10.10;77.60;10.10;96823.00;;;;5059442;28;20212;-83
2022/11/06 01:03:35;;;;;;;4.30;2.87;;;10.00;77.30;10.00;96821.00;;;;5064426;28;20307;-83
2022/11/06 01:06:12;;;;;;;3.10;2.80;;;10.00;77.20;10.00;96822.00;;;;5067699;28;20204;-83
2022/11/06 01:08:40;;;;;;;3.80;3.40;;;10.00;77.00;9.90;96820.00;;;;5065899;28;20283;-83
2022/11/06 01:16:08;;;;;;;3.00;2.70;;;9.80;76.60;9.80;96799.00;;;;5046353;28;20224;-87
2022/11/06 01:18:37;;;;;;;3.20;2.90;;;9.80;76.40;9.80;96814.00;;;;5046551;28;20280;-87
2022/11/06 01:21:08;;;;;;;3.60;3.30;;;9.80;76.50;9.70;96802.00;;;;5047584;28;20211;-87
2022/11/06 01:23:35;;;;;;;3.23;3.00;;;9.70;76.60;9.70;96799.00;;;;5044307;28;20252;-87
2022/11/06 01:26:06;;;;;;;3.57;3.27;;;9.70;76.70;9.70;96799.00;;;;5045108;28;20287;-87
2022/11/06 01:28:34;;;;;;;3.80;3.47;;;9.70;77.00;9.70;96797.00;;;;5048806;28;20633;-87
2022/11/06 01:31:03;;;;;;;3.83;3.47;;;9.70;77.10;9.60;96788.00;;;;5053224;28;20310;-87
2022/11/06 01:33:30;;;;;;;3.90;3.47;;;10.30;77.50;9.60;96784.00;;;;5052899;28;20259;-87
2022/11/06 01:35:58;;;;;;;5.33;3.40;;;9.60;77.00;9.60;96780.00;;;;5053599;28;20631;-87
2022/11/06 01:38:27;;;;;;;8.90;3.53;;;9.60;76.90;9.50;96780.00;;;;5053256;28;20207;-87
2022/11/06 01:40:54;;;;;;;5.90;2.90;;;9.60;76.70;9.50;96776.00;;;;5034498;28;20292;-87
2022/11/06 01:43:26;;;;;;;3.53;2.90;;;9.60;76.70;9.50;96788.00;;;;5033331;28;20245;-87
2022/11/06 01:45:55;;;;;;;23.83;2.90;;;9.60;76.50;9.40;96787.00;;;;5033649;28;20365;-87
2022/11/06 01:48:27;;;;;;;3.03;2.83;;;9.50;76.30;9.40;96782.00;;;;5048704;28;20239;-87
2022/11/06 01:50:58;;;;;;;3.60;3.00;;;9.50;76.20;9.40;96780.00;;;;5053098;28;20231;-87
2022/11/06 01:53:28;;;;;;;3.40;3.07;;;9.80;76.40;9.30;96773.00;;;;5052801;28;20247;-87
2022/11/06 01:56:01;;;;;;;5.67;3.33;;;9.40;76.40;9.30;96781.00;;;;5053043;28;20631;-87
2022/11/06 01:58:33;;;;;;;5.23;3.20;;;9.40;76.60;9.30;96778.00;;;;5053218;28;20246;-87
2022/11/06 02:01:01;;;;;;;3.87;3.37;;;9.40;76.70;9.30;96770.00;;;;5052581;28;20223;-87
2022/11/06 02:03:29;;;;;;;2.43;2.23;;;9.30;76.60;9.30;96772.00;;;;5053034;28;20224;-87
2022/11/06 02:05:58;;;;;;;11.23;2.70;;;9.30;76.70;9.30;96778.00;;;;5052809;28;20640;-87
2022/11/06 02:08:27;;;;;;;6.47;2.70;;;9.90;77.30;9.20;96787.00;;;;5052911;28;20279;-87
2022/11/06 02:10:55;;;;;;;6.67;2.53;;;9.30;76.90;9.20;96777.00;;;;5032465;28;20288;-87
2022/11/06 02:13:43;;;;;;;7.17;2.67;;;9.20;76.90;9.20;96776.00;;;;5045737;28;20307;-87
2022/11/06 02:16:21;;;;;;;10.83;2.67;;;9.20;76.90;9.20;96787.00;;;;5052608;28;20197;-87
2022/11/06 02:19:08;;;;;;;8.00;2.60;;;9.20;76.90;9.10;96787.00;;;;5052810;28;20230;-87
2022/11/06 02:22:15;;;;;;;6.20;2.60;;;9.20;77.00;9.10;96787.00;;;;5052208;28;20207;-87
2022/11/06 02:25:12;;;;;;;10.37;3.63;;;9.10;77.10;9.10;96783.00;;;;5032297;28;20570;-87
2022/11/06 02:27:45;;;;;;;11.20;2.60;;;9.10;77.30;9.00;96770.00;;;;5039709;28;20280;-87
2022/11/06 02:30:15;;;;;;;9.93;2.93;;;9.10;77.40;9.10;96774.00;;;;5052564;28;20181;-87
2022/11/06 02:32:48;;;;;;;3.57;2.13;;;9.10;77.70;9.10;96775.00;;;;5052044;28;20259;-87
2022/11/06 02:35:24;;;;;;;7.83;2.63;;;9.10;77.90;9.10;96764.00;;;;5052335;28;20219;-87
2022/11/06 02:37:58;;;;;;;4.77;2.30;;;9.10;78.10;9.10;96771.00;;;;5052354;28;20208;-87
2022/11/06 02:40:32;;;;;;;2.53;2.33;;;9.10;78.30;9.10;96774.00;;;;5052170;28;20201;-87
2022/11/06 02:43:06;;;;;;;12.77;2.57;;;9.10;78.50;9.10;96771.00;;;;5052213;28;20266;-87
2022/11/06 02:45:41;;;;;;;2.50;2.30;;;9.10;78.60;9.10;96765.00;;;;5051963;28;20267;-87
2022/11/06 02:48:14;;;;;;;5.50;2.40;;;9.10;78.70;9.20;96766.00;;;;5051942;28;20728;-87
2022/11/06 02:50:47;;;;;;;8.33;2.67;;;9.10;78.70;9.20;96762.00;;;;5051951;28;20267;-87
2022/11/06 02:53:18;;;;;;;5.40;2.43;;;9.20;78.80;9.30;96767.00;;;;5051982;28;20308;-87
2022/11/06 02:55:49;;;;;;;11.10;2.63;;;9.20;78.90;9.30;96763.00;;;;5051701;28;20710;-87
2022/11/06 02:58:23;;;;;;;2.90;2.57;;;9.20;79.00;9.30;96753.00;;;;5052197;28;20297;-87
2022/11/06 03:00:59;;;;;;;14.83;2.80;;;9.30;79.00;9.40;96760.00;;;;5051952;28;20461;-87
2022/11/06 03:03:32;;;;;;;12.87;3.20;;;9.30;78.90;9.40;96757.00;;;;5051931;28;20770;-87
2022/11/06 03:06:07;;;;;;;8.80;3.10;;;9.30;78.90;9.40;96755.00;;;;5051916;28;20279;-87
2022/11/06 03:08:40;;;;;;;4.40;2.70;;;9.30;78.90;9.40;96750.00;;;;5052013;28;20547;-87
2022/11/06 03:11:17;;;;;;;5.10;2.67;;;9.30;79.00;9.50;96755.00;;;;5051740;28;20263;-87
2022/11/06 03:13:56;;;;;;;10.27;3.57;;;9.40;79.10;9.50;96750.00;;;;5052247;28;20224;-88
2022/11/06 03:16:31;;;;;;;4.50;2.87;;;9.30;79.00;9.50;96748.00;;;;5051504;28;20180;-87
2022/11/06 03:19:08;;;;;;;7.13;2.37;;;9.50;79.10;9.50;96748.00;;;;5051781;28;20192;-87
2022/11/06 03:21:52;;;;;;;2.77;2.57;;;9.50;79.10;9.60;96759.00;;;;5051746;28;20227;-87
2022/11/06 03:24:30;;;;;;;2.80;2.60;;;9.50;79.80;9.60;96756.00;;;;5051471;28;20295;-87
2022/11/06 03:27:01;;;;;;;4.10;2.90;;;9.60;79.10;9.70;96752.00;;;;5051733;28;20234;-87
2022/11/06 03:29:41;;;;;;;3.53;3.23;;;9.60;79.00;9.70;96755.00;;;;5052044;28;20270;-87
2022/11/06 03:32:15;;;;;;;3.13;2.93;;;9.60;79.00;9.70;96752.00;;;;5053230;28;20303;-87
2022/11/06 03:34:52;;;;;;;3.53;3.23;;;9.60;79.10;9.70;96756.00;;;;5052497;28;20272;-87
2022/11/06 03:37:28;;;;;;;5.63;3.20;;;9.70;79.10;9.80;96759.00;;;;5052747;28;20235;-87
2022/11/06 03:40:01;;;;;;;3.67;3.20;;;9.70;79.10;9.80;96758.00;;;;5053227;28;20242;-87
2022/11/06 03:42:30;;;;;;;3.27;3.03;;;9.80;79.30;9.80;96759.00;;;;5053112;28;20216;-87
2022/11/06 03:45:06;;;;;;;2.80;2.60;;;9.70;79.20;9.90;96769.00;;;;5051947;28;20275;-87
2022/11/06 03:47:40;;;;;;;3.60;3.30;;;9.80;79.30;9.90;96759.00;;;;5051408;28;20200;-87
2022/11/06 03:50:15;;;;;;;4.57;3.03;;;9.80;79.40;9.90;96763.00;;;;5051536;28;20230;-87
2022/11/06 03:52:51;;;;;;;3.73;3.43;;;9.80;79.40;10.00;96757.00;;;;5051047;28;20276;-87
2022/11/06 03:55:24;;;;;;;3.53;3.23;;;9.70;79.20;10.00;96755.00;;;;5051231;28;20189;-87
2022/11/06 03:57:58;;;;;;;3.57;3.27;;;9.90;79.30;10.00;96748.00;;;;5051537;28;20291;-87
2022/11/06 04:00:26;;;;;;;3.87;3.57;;;9.90;79.30;10.00;96758.00;;;;5051479;28;20731;-87
2022/11/06 04:03:03;;;;;;;4.20;3.83;;;10.20;79.50;10.00;96755.00;;;;5054916;28;20311;-87
2022/11/06 04:05:35;;;;;;;4.63;3.90;;;10.00;79.30;10.10;96765.00;;;;5054906;28;20308;-87
2022/11/06 04:14:00;;;;;;;3.87;3.57;;;10.00;79.40;10.10;96747.00;;;;5055017;28;20243;-87
2022/11/06 04:16:34;;;;;;;4.23;3.83;;;10.10;79.60;10.20;96751.00;;;;5054908;28;20201;-87
2022/11/06 04:19:02;;;;;;;4.33;3.93;;;10.10;79.70;10.20;96748.00;;;;5054736;28;20232;-87
2022/11/06 04:21:53;;;;;;;4.03;3.73;;;10.10;79.50;10.30;96744.00;;;;5054974;28;20284;-87
2022/11/06 04:27:35;;;;;;;4.37;3.97;;;10.20;79.50;10.30;96739.00;;;;5054432;28;20198;-87
2022/11/06 04:30:08;;;;;;;3.77;3.43;;;10.20;79.50;10.30;96743.00;;;;5054648;28;20629;-87
2022/11/06 04:32:57;;;;;;;3.80;3.50;;;10.20;79.50;10.40;96750.00;;;;5054384;28;20259;-87
2022/11/06 04:35:35;;;;;;;4.10;3.70;;;10.20;79.60;10.40;96743.00;;;;5054835;28;20192;-87
2022/11/06 04:38:10;;;;;;;3.67;3.37;;;10.40;79.70;10.40;96749.00;;;;5054176;28;20657;-87
2022/11/06 04:40:51;;;;;;;4.57;4.17;;;10.30;79.60;10.50;96745.00;;;;5054622;28;20202;-87
2022/11/06 04:43:28;;;;;;;3.57;3.27;;;10.40;79.80;10.50;96732.00;;;;5054137;28;20315;-87
2022/11/06 04:45:59;;;;;;;4.10;3.70;;;10.40;79.90;10.50;96730.00;;;;5054511;28;20287;-87
2022/11/06 04:48:29;;;;;;;4.00;3.70;;;10.30;79.70;10.60;96724.00;;;;5054689;28;20205;-87
2022/11/06 04:51:02;;;;;;;4.40;4.00;;;10.40;79.70;10.60;96722.00;;;;5054520;28;20295;-87
2022/11/06 04:53:32;;;;;;;4.63;4.23;;;10.50;79.90;10.60;96713.00;;;;5054588;28;20239;-87
2022/11/06 04:56:09;;;;;;;5.23;4.67;;;10.50;79.90;10.70;96708.00;;;;5054438;28;20284;-87
2022/11/06 04:58:37;;;;;;;4.50;4.10;;;10.50;79.90;10.70;96716.00;;;;5054289;28;20271;-87
2022/11/06 05:01:05;;;;;;;4.50;4.10;;;10.50;79.90;10.70;96714.00;;;;5054310;28;20208;-87
2022/11/06 05:03:33;;;;;;;5.23;4.77;;;10.60;79.80;10.70;96711.00;;;;5053717;28;20313;-87
2022/11/06 05:06:01;;;;;;;4.40;4.00;;;10.60;79.80;10.80;96706.00;;;;5054079;28;20276;-87
2022/11/06 05:08:28;;;;;;;4.50;4.10;;;10.60;79.80;10.80;96704.00;;;;5049813;28;20274;-87
2022/11/06 05:10:55;;;;;;;5.00;4.50;;;10.60;79.70;10.80;96701.00;;;;5054192;28;20209;-87
2022/11/06 05:13:22;;;;;;;4.40;4.00;;;10.80;79.90;10.80;96711.00;;;;5053071;28;20243;-87
2022/11/06 05:15:49;;;;;;;4.13;3.83;;;10.70;79.70;10.80;96708.00;;;;5053675;28;20731;-87
2022/11/06 05:18:16;;;;;;;4.07;3.70;;;10.70;79.60;10.80;96707.00;;;;5053728;28;20733;-87
2022/11/06 05:20:44;;;;;;;3.63;3.30;;;10.70;79.60;10.80;96700.00;;;;5053467;28;20220;-87
2022/11/06 05:23:11;;;;;;;5.67;3.77;;;10.70;79.50;10.80;96698.00;;;;5053750;28;20223;-87
2022/11/06 05:25:39;;;;;;;6.50;3.43;;;10.70;79.40;10.80;96696.00;;;;5053272;28;20199;-87
2022/11/06 05:28:08;;;;;;;14.17;3.80;;;10.70;79.20;10.80;96696.00;;;;5053582;28;20205;-87
2022/11/06 05:30:37;;;;;;;8.40;3.30;;;10.70;79.10;10.80;96699.00;;;;5053563;28;20321;-87
2022/11/06 05:33:04;;;;;;;10.20;3.53;;;10.70;79.10;10.80;96701.00;;;;5053246;28;20220;-87
2022/11/06 05:35:32;;;;;;;8.17;3.70;;;10.70;79.00;10.80;96694.00;;;;5053708;28;20673;-87
2022/11/06 05:38:01;;;;;;;6.00;3.37;;;10.60;78.80;10.70;96691.00;;;;5053185;28;20278;-87
2022/11/06 05:40:29;;;;;;;5.13;3.40;;;10.70;78.70;10.70;96694.00;;;;5053255;28;20289;-87
2022/11/06 05:42:56;;;;;;;7.07;3.43;;;10.60;78.70;10.70;96689.00;;;;5053493;28;20224;-87
2022/11/06 05:45:23;;;;;;;5.77;3.50;;;10.60;78.80;10.70;96699.00;;;;5053257;28;20293;-87
2022/11/06 05:47:50;;;;;;;5.33;3.50;;;10.60;78.80;10.70;96696.00;;;;5053446;28;20238;-87
2022/11/06 05:50:18;;;;;;;14.30;4.20;;;10.70;79.70;10.70;96696.00;;;;5053373;28;20207;-87
2022/11/06 05:52:45;;;;;;;3.70;3.40;;;10.60;79.00;10.70;96694.00;;;;5048429;28;20259;-87
2022/11/06 05:55:13;;;;;;;14.40;3.97;;;10.60;78.90;10.70;96699.00;;;;5042965;28;20668;-87
2022/11/06 05:57:41;;;;;;;11.57;3.60;;;10.60;78.90;10.60;96689.00;;;;5044562;28;20297;-86
2022/11/06 06:00:11;;;;;;;10.33;3.77;;;10.60;79.00;10.70;96689.00;;;;5043082;28;20197;-86
2022/11/06 06:02:38;;;;;;;13.00;3.73;;;10.60;78.90;10.70;96700.00;;;;5042239;28;20642;-86
2022/11/06 06:05:07;;;;;;;3.67;3.20;;;10.60;79.00;10.70;96699.00;;;;5040783;28;20745;-87
2022/11/06 06:07:35;;;;;;;10.27;3.90;;;10.60;79.10;10.60;96700.00;;;;5043162;28;20311;-87
2022/11/06 06:10:03;;;;;;;20.73;3.73;;;10.60;79.80;10.60;96694.00;;;;5043898;28;20209;-87
2022/11/06 06:12:31;;;;;;;13.37;3.40;;;10.50;79.10;10.60;96692.00;;;;5042654;28;20756;-86
2022/11/06 06:14:58;;;;;;;3.37;3.03;;;10.50;79.00;10.60;96697.00;;;;5042717;28;20216;-86
2022/11/06 06:17:26;;;;;;;10.83;3.87;;;10.50;79.00;10.60;96696.00;;;;5042872;28;20232;-87
2022/11/06 06:19:53;;;;;;;21.40;3.93;;;10.50;79.10;10.60;96686.00;;;;5041895;28;20208;-86
2022/11/06 06:22:20;;;;;;;7.33;3.13;;;10.50;79.10;10.60;96682.00;;;;5044543;28;20750;-86
2022/11/06 06:24:47;;;;;;;16.47;3.33;;;10.50;79.00;10.60;96677.00;;;;5042840;28;20584;-87
2022/11/06 06:27:14;;;;;;;21.63;4.20;;;10.50;79.00;10.50;96680.00;;;;5042024;28;20299;-86
2022/11/06 06:29:43;;;;;;;20.90;4.67;;;10.50;79.00;10.50;96678.00;;;;5044009;28;20229;-86
2022/11/06 06:32:10;;;;;;;7.97;3.47;;;10.50;78.80;10.50;96672.00;;;;5054017;28;20248;-86
2022/11/06 06:34:37;;;;;;;7.40;3.53;;;10.50;78.80;10.40;96670.00;;;;5045314;28;20220;-86
2022/11/06 06:37:04;;;;;;;5.97;3.17;;;10.40;78.70;10.40;96666.00;;;;5044266;28;20691;-86
2022/11/06 06:39:31;;;;;;;12.17;3.67;;;10.40;78.70;10.40;96667.00;;;;5042267;28;20256;-86
2022/11/06 06:41:58;;;;;;;3.50;3.30;;;10.40;78.70;10.40;96669.00;;;;5044161;28;20705;-86
2022/11/06 06:44:25;;;;;;;20.73;4.37;;;10.40;78.80;10.40;96664.00;;;;5041438;28;20225;-87
2022/11/06 06:46:54;;;;;;;13.07;3.43;;;10.30;78.80;10.40;96656.00;;;;5044719;28;20251;-86
2022/11/06 06:49:21;;;;;;;13.77;3.90;;;10.40;79.10;10.40;96666.00;;;;5042394;28;20288;-86
2022/11/06 06:51:48;;;;;;;5.53;3.30;;;10.40;79.10;10.40;96663.00;;;;5046662;28;20210;-87
2022/11/06 06:54:16;;;;;;;15.97;4.87;;;10.40;79.20;10.40;96664.00;;;;5045054;28;20217;-87
2022/11/06 06:56:43;;;;;;;10.10;4.23;;;10.40;79.30;10.40;96656.00;;;;5048697;28;20632;-86
2022/11/06 06:59:10;;;;;;;8.63;3.97;;;10.40;79.40;10.40;96659.00;;;;5045383;28;20224;-86
2022/11/06 07:01:37;;;;;;;10.63;3.63;;;10.40;79.50;10.50;96670.00;;;;5045040;28;20630;-86
2022/11/06 07:04:06;;;;;;;6.90;3.80;;;10.40;79.60;10.50;96666.00;;;;5047942;28;20315;-86
2022/11/06 07:06:33;;;;;;;7.53;3.80;;;10.40;79.70;10.50;96662.00;;;;5043688;28;20217;-87
2022/11/06 07:09:00;;;;;;;3.33;3.13;;;10.40;79.70;10.50;96661.00;;;;5047295;28;20300;-86
2022/11/06 07:11:27;;;;;;;4.53;3.50;;;10.40;79.80;10.60;96665.00;;;;5043512;28;20291;-87
2022/11/06 07:13:54;;;;;;;3.87;3.47;;;10.50;80.50;10.60;96670.00;;;;5044473;28;20263;-86
2022/11/06 07:16:21;;;;;;;9.53;4.00;;;10.50;80.00;10.60;96670.00;;;;5051278;28;20232;-87
2022/11/06 07:18:48;;;;;;;4.40;4.10;;;10.50;80.00;10.60;96670.00;;;;5043319;28;20232;-87
2022/11/06 07:21:17;;;;;;;4.73;4.30;;;10.50;80.00;10.70;96680.00;;;;5046175;28;20232;-86
2022/11/06 07:23:45;;;;;;;4.60;4.20;;;10.50;80.10;10.70;96683.00;;;;5042534;28;20315;-87
2022/11/06 07:26:12;;;;;;;5.90;4.70;;;10.50;80.10;10.70;96689.00;;;;5042131;28;20212;-87
2022/11/06 07:28:39;;;;;;;7.67;5.17;;;10.60;80.30;10.80;96691.00;;;;5066302;22;20218;-86
2022/11/06 07:31:08;;;;;;;8.40;5.70;;;10.60;80.30;10.80;96689.00;;;;5061101;28;20227;-86
2022/11/06 07:33:36;;;;;;;7.33;5.67;;;10.70;80.30;10.90;96689.00;;;;5059263;28;20224;-85
2022/11/06 07:36:05;;;;;;;7.90;6.37;;;10.70;80.30;10.90;96690.00;;;;5062977;28;20287;-86
2022/11/06 07:38:36;;;;;;;7.93;5.97;;;10.70;80.40;11.00;96690.00;;;;5066428;28;20267;-86
2022/11/06 07:41:05;;;;;;;11.07;7.67;;;10.90;80.50;11.00;96690.00;;;;5065470;28;20286;-86
2022/11/06 07:43:33;;;;;;;10.70;8.10;;;10.80;80.40;11.00;96699.00;;;;5062658;28;20725;-86
2022/11/06 07:46:01;;;;;;;12.37;9.07;;;10.90;80.40;11.10;96701.00;;;;5066956;28;20286;-86
2022/11/06 07:48:28;;;;;;;12.33;9.77;;;10.90;80.40;11.10;96703.00;;;;5061163;28;20866;-86
2022/11/06 07:50:56;;;;;;;13.03;9.97;;;10.90;80.40;11.10;96701.00;;;;5066529;28;20192;-87
2022/11/06 07:53:24;;;;;;;12.20;9.67;;;11.00;80.30;11.10;96703.00;;;;5065516;28;20230;-85
2022/11/06 07:55:56;;;;;;;12.60;9.53;;;11.00;80.20;11.10;96695.00;;;;5065890;28;20286;-86
2022/11/06 07:58:24;;;;;;;13.00;9.20;;;11.00;80.10;11.10;96704.00;;;;5063035;28;20227;-86
2022/11/06 08:00:55;;;;;;;13.33;9.17;;;11.00;80.10;11.10;96698.00;;;;5062815;28;20733;-86
2022/11/06 08:03:23;;;;;;;11.77;9.17;;;11.10;80.20;11.20;96692.00;;;;5066654;28;20332;-87
2022/11/06 08:05:51;;;;;;;13.00;9.60;;;11.10;80.30;11.20;96691.00;;;;5066600;28;20204;-86
2022/11/06 08:08:18;;;;;;;13.03;9.80;;;11.10;80.20;11.20;96692.00;;;;5064382;28;20223;-87
2022/11/06 08:10:46;;;;;;;12.27;9.20;;;11.10;80.20;11.30;96683.00;;;;5065208;28;20291;-86
2022/11/06 08:13:17;;;;;;;14.40;10.23;;;11.10;80.10;11.30;96680.00;;;;5065601;28;20318;-85
2022/11/06 08:15:45;;;;;;;13.03;9.33;;;11.20;80.20;11.30;96669.00;;;;5061500;28;20302;-86
2022/11/06 08:18:12;;;;;;;13.03;9.63;;;11.20;80.20;11.40;96675.00;;;;5064818;28;20311;-87
2022/11/06 08:20:40;;;;;;;12.40;9.53;;;11.20;80.20;11.40;96667.00;;;;5063686;28;20330;-87
2022/11/06 08:23:10;;;;;;;11.90;9.30;;;11.30;80.30;11.40;96667.00;;;;5063725;28;20720;-87
2022/11/06 08:25:38;;;;;;;12.13;8.87;;;11.30;80.30;11.50;96658.00;;;;5072935;28;20279;-87
2022/11/06 08:28:05;;;;;;;11.67;8.03;;;11.30;80.20;11.50;96654.00;;;;5068016;28;20694;-87
2022/11/06 08:30:34;;;;;;;11.30;8.40;;;11.20;80.10;11.50;96660.00;;;;5062184;28;20291;-87
2022/11/06 08:33:05;;;;;;;11.63;8.10;;;11.40;80.20;11.50;96651.00;;;;5063545;28;20326;-86
2022/11/06 08:35:34;;;;;;;10.47;7.60;;;11.40;80.20;11.60;96644.00;;;;5062074;28;20226;-86
2022/11/06 08:38:01;;;;;;;10.40;7.73;;;11.40;80.10;11.60;96635.00;;;;5062219;28;20267;-86
2022/11/06 08:40:29;;;;;;;10.13;7.83;;;11.40;80.70;11.60;96639.00;;;;5061402;28;20631;-86
2022/11/06 08:43:00;;;;;;;8.93;7.00;;;11.50;79.70;11.60;96638.00;;;;5065949;28;20258;-86
2022/11/06 08:45:27;;;;;;;8.63;6.70;;;11.50;79.80;11.60;96635.00;;;;5061450;28;20200;-87
2022/11/06 08:48:00;;;;;;;8.93;7.23;;;11.50;79.90;11.60;96621.00;;;;5064393;28;20227;-86
2022/11/06 08:50:27;;;;;;;8.73;6.50;;;11.50;80.00;11.70;96633.00;;;;5058994;28;20240;-86
2022/11/06 08:52:56;;;;;;;8.90;6.67;;;11.60;80.10;11.70;96634.00;;;;5063873;28;20227;-87
2022/11/06 08:55:24;;;;;;;8.47;6.57;;;11.60;80.20;11.80;96640.00;;;;5061612;28;20211;-86
2022/11/06 08:57:51;;;;;;;9.23;6.80;;;11.60;80.20;11.80;96638.00;;;;5065754;28;20206;-86
2022/11/06 09:00:18;;;;;;;9.30;7.17;;;11.70;80.30;11.90;96643.00;;;;5061103;28;20673;-87
2022/11/06 09:02:45;;;;;;;9.50;7.47;;;11.70;80.30;11.90;96646.00;;;;5063258;28;20236;-86
2022/11/06 09:05:14;;;;;;;10.80;7.47;;;11.70;80.30;12.00;96650.00;;;;5063846;28;20202;-86
2022/11/06 09:07:41;;;;;;;10.10;7.07;;;11.80;80.30;12.00;96649.00;;;;5063364;28;20247;-85
2022/11/06 09:10:09;;;;;;;10.67;7.43;;;11.80;80.30;12.10;96630.00;;;;5063541;28;20283;-86
2022/11/06 09:12:36;;;;;;;9.13;6.93;;;11.90;80.30;12.10;96626.00;;;;5065278;28;20224;-86
2022/11/06 09:15:03;;;;;;;7.87;6.27;;;11.90;80.30;12.20;96622.00;;;;5062337;28;20716;-86
2022/11/06 09:17:31;;;;;;;10.03;7.67;;;11.90;80.20;12.20;96625.00;;;;5062687;28;20679;-86
2022/11/06 09:19:58;;;;;;;8.90;6.80;;;12.00;80.20;12.30;96612.00;;;;5064097;28;20292;-86
2022/11/06 09:22:26;;;;;;;10.73;7.63;;;12.00;80.30;12.30;96601.00;;;;5063353;28;20234;-86
2022/11/06 09:24:53;;;;;;;12.13;8.33;;;12.10;80.50;12.40;96596.00;;;;5064328;28;20602;-86
2022/11/06 09:27:20;;;;;;;9.90;8.03;;;12.00;81.30;12.50;96593.00;;;;5062853;28;20287;-86
2022/11/06 09:29:48;;;;;;;13.77;8.70;;;12.10;80.60;12.50;96588.00;;;;5063825;28;20228;-86
2022/11/06 09:32:15;;;;;;;11.77;8.77;;;12.20;80.80;12.60;96584.00;;;;5062378;28;20196;-86
2022/11/06 09:34:42;;;;;;;10.83;8.53;;;12.40;80.80;12.70;96582.00;;;;5064005;28;20339;-85
2022/11/06 09:37:09;;;;;;;11.10;8.20;;;12.30;80.60;12.70;96576.00;;;;5064219;28;20755;-86
2022/11/06 09:39:37;;;;;;;11.53;8.67;;;12.30;80.50;12.80;96567.00;;;;5062521;28;20256;-85
2022/11/06 09:42:18;;;;;;;11.67;9.50;;;12.40;80.50;12.80;96562.00;;;;5064378;28;20196;-86
2022/11/06 09:45:06;;;;;;;11.40;8.93;;;12.50;80.60;12.90;96555.00;;;;5064293;28;20661;-86
2022/11/06 09:47:41;;;;;;;10.47;8.43;;;12.50;80.60;12.90;96549.00;;;;5063295;28;20215;-86
2022/11/06 09:50:19;;;;;;;11.03;8.20;;;12.70;80.70;13.00;96531.00;;;;5064713;28;20702;-86
2022/11/06 09:52:51;;;;;;;11.60;8.50;;;12.70;80.70;13.10;96539.00;;;;5059070;28;20244;-85
2022/11/06 09:55:26;;;;;;;11.30;8.93;;;12.70;80.60;13.10;96525.00;;;;5061590;28;20522;-85
2022/11/06 09:57:59;;;;;;;10.03;8.30;;;12.80;80.50;13.20;96525.00;;;;5060887;28;20323;-85
2022/11/06 10:00:26;;;;;;;10.60;8.50;;;12.80;80.50;13.20;96520.00;;;;5063645;28;20673;-85
2022/11/06 10:02:59;;;;;;;11.57;8.23;;;12.90;80.60;13.30;96519.00;;;;5064880;28;20289;-85
2022/11/06 10:05:31;;;;;;;10.23;8.27;;;13.00;80.60;13.40;96514.00;;;;5062274;28;20200;-85
2022/11/06 10:08:02;;;;;;;11.10;8.43;;;13.00;80.40;13.40;96520.00;;;;5061446;28;20220;-84
2022/11/06 10:10:40;;;;;;;10.07;7.73;;;13.10;80.40;13.50;96511.00;;;;5060444;28;20632;-85
2022/11/06 10:13:28;;;;;;;9.00;7.60;;;13.10;81.00;13.50;96510.00;;;;5060478;28;20236;-85
2022/11/06 10:16:05;;;;;;;9.73;7.73;;;13.20;80.20;13.60;96512.00;;;;5063883;28;20274;-85
2022/11/06 10:18:51;;;;;;;8.40;7.47;;;13.30;80.20;13.60;96505.00;;;;5061406;28;20254;-85
2022/11/06 10:21:25;;;;;;;8.27;7.37;;;13.30;80.20;13.70;96498.00;;;;5056525;28;20232;-85
2022/11/06 10:23:58;;;;;;;8.53;7.63;;;13.40;80.20;13.70;96492.00;;;;5060732;28;20212;-85
2022/11/06 10:26:38;;;;;;;8.20;7.33;;;13.40;80.10;13.80;96486.00;;;;5062625;28;20208;-85
2022/11/06 10:29:33;;;;;;;8.03;7.20;;;13.50;80.10;13.90;96471.00;;;;5062892;28;20644;-85
2022/11/06 10:32:29;;;;;;;8.20;7.17;;;13.60;80.00;13.90;96474.00;;;;5063247;28;20287;-85
2022/11/06 10:35:03;;;;;;;8.70;7.80;;;13.60;79.90;13.90;96473.00;;;;5062798;28;20315;-85
2022/11/06 10:37:38;;;;;;;7.47;6.73;;;13.70;79.70;13.90;96469.00;;;;5060470;28;20229;-85
2022/11/06 10:40:15;;;;;;;7.90;7.10;;;13.70;79.60;14.00;96464.00;;;;5060103;28;20291;-85
2022/11/06 10:42:47;;;;;;;7.10;6.40;;;13.70;79.40;14.00;96465.00;;;;5061113;28;20295;-85
2022/11/06 10:45:17;;;;;;;6.67;6.07;;;13.70;79.40;14.10;96457.00;;;;5059767;28;20211;-85
2022/11/06 10:47:51;;;;;;;6.10;5.57;;;13.80;79.40;14.10;96458.00;;;;5063419;28;20641;-85
2022/11/06 10:50:19;;;;;;;6.77;6.17;;;13.80;79.40;14.20;96456.00;;;;5064161;28;20238;-86
2022/11/06 10:52:58;;;;;;;6.03;5.53;;;13.80;79.50;14.20;96448.00;;;;5055479;28;20228;-85
2022/11/06 10:55:48;;;;;;;6.53;5.80;;;13.90;79.30;14.30;96437.00;;;;5061189;28;20665;-85
2022/11/06 10:58:19;;;;;;;8.40;6.37;;;14.00;79.60;14.40;96429.00;;;;5061084;28;20224;-86
2022/11/06 11:00:48;;;;;;;6.60;6.00;;;14.00;79.50;14.40;96429.00;;;;5060855;28;20294;-85
2022/11/06 11:03:26;;;;;;;6.57;6.07;;;14.10;79.50;14.50;96424.00;;;;5059602;28;20207;-86
2022/11/06 11:05:54;;;;;;;5.87;5.30;;;14.20;79.70;14.60;96414.00;;;;5059093;28;20196;-85
2022/11/06 11:08:41;;;;;;;6.50;5.90;;;14.20;79.40;14.60;96411.00;;;;5063564;28;20228;-85
2022/11/06 11:11:23;;;;;;;5.40;4.90;;;14.30;78.30;14.60;96402.00;;;;5059936;28;20634;-85
2022/11/06 11:14:21;;;;;;;4.83;4.43;;;14.30;77.60;14.60;96397.00;;;;5060682;28;20230;-85
2022/11/06 11:16:49;;;;;;;5.27;4.80;;;14.30;77.40;14.50;96386.00;;;;5062283;28;20632;-85
2022/11/06 11:19:26;;;;;;;4.80;4.40;;;14.40;77.30;14.50;96385.00;;;;5063487;28;20590;-86
2022/11/06 11:21:57;;;;;;;4.97;4.57;;;14.30;76.70;14.50;96378.00;;;;5062395;28;20292;-86
2022/11/06 11:24:24;;;;;;;4.60;4.20;;;14.30;76.70;14.40;96376.00;;;;5059482;28;20218;-85
2022/11/06 11:26:55;;;;;;;5.10;4.70;;;14.30;77.00;14.40;96360.00;;;;5063300;28;20215;-85
2022/11/06 11:29:28;;;;;;;4.87;4.47;;;14.20;76.20;14.40;96362.00;;;;5059026;28;20314;-86